createdAt,value
2022-08-05T00:00:21.475Z,2.20
2022-08-05T00:10:27.112Z,2.47
2022-08-05T00:20:30.233Z,2.10
2022-08-05T00:30:34.647Z,2.15
2022-08-05T00:40:51.921Z,2.10
2022-08-05T00:50:57.952Z,1.80
2022-08-05T01:01:01.072Z,2.05
2022-08-05T01:11:11.161Z,1.70
2022-08-05T01:21:38.280Z,1.70
2022-08-05T01:31:45.947Z,1.63
2022-08-05T01:41:51.968Z,1.73
2022-08-05T01:52:02.051Z,1.80
2022-08-05T02:02:28.298Z,1.90
2022-08-05T02:12:37.821Z,2.30
2022-08-05T02:22:45.925Z,2.50
2022-08-05T02:32:56.865Z,2.35
2022-08-05T02:43:02.328Z,2.15
2022-08-05T02:53:16.013Z,2.00
2022-08-05T03:03:23.571Z,1.80
2022-08-05T03:13:28.183Z,1.70
2022-08-05T03:23:51.719Z,1.85
2022-08-05T03:33:56.456Z,2.00
2022-08-05T03:44:11.472Z,2.10
2022-08-05T03:55:51.034Z,1.73
2022-08-05T04:04:46.188Z,2.10
2022-08-05T04:14:52.085Z,1.70
2022-08-05T04:24:55.164Z,1.92
2022-08-05T04:34:59.574Z,2.20
2022-08-05T04:45:02.952Z,2.05
2022-08-05T04:55:14.225Z,2.33
2022-08-05T05:05:28.216Z,2.58
2022-08-05T05:15:56.522Z,2.40
2022-08-05T05:25:57.677Z,2.70
2022-08-05T05:36:05.600Z,2.20
2022-08-05T05:46:15.950Z,2.40
2022-08-05T05:56:31.393Z,2.47
2022-08-05T06:06:35.342Z,2.22
2022-08-05T06:16:39.788Z,2.35
2022-08-05T06:26:51.518Z,2.20
2022-08-05T06:36:58.837Z,2.50
2022-08-05T06:47:02.433Z,2.60
2022-08-05T06:57:56.690Z,2.50
2022-08-05T07:07:43.023Z,2.00
2022-08-05T07:18:00.542Z,2.40
2022-08-05T07:28:17.121Z,2.30
2022-08-05T07:38:34.260Z,2.50
2022-08-05T07:49:01.878Z,2.63
2022-08-05T07:59:02.691Z,2.63
2022-08-05T08:09:05.738Z,2.40
2022-08-05T08:19:10.111Z,2.63
2022-08-05T08:30:06.115Z,2.45
2022-08-05T08:39:57.802Z,2.50
2022-08-05T08:50:32.048Z,2.90
2022-08-05T09:00:29.729Z,2.50
2022-08-05T09:10:33.248Z,2.72
2022-08-05T09:20:38.417Z,2.85
2022-08-05T09:30:45.120Z,2.80
2022-08-05T09:40:56.553Z,3.20
2022-08-05T09:51:01.213Z,3.28
2022-08-05T10:01:15.449Z,3.30
2022-08-05T10:11:31.423Z,3.35
2022-08-05T10:21:40.118Z,3.30
2022-08-05T10:33:02.200Z,3.20
2022-08-05T10:42:14.544Z,2.95
2022-08-05T10:52:40.239Z,3.20
2022-08-05T11:03:24.418Z,3.25
2022-08-05T11:13:55.089Z,3.65
2022-08-05T11:24:29.632Z,3.25
2022-08-05T11:34:51.739Z,3.78
2022-08-05T11:45:05.572Z,3.25
2022-08-05T11:55:10.453Z,3.55
2022-08-05T12:05:32.239Z,3.05
2022-08-05T12:15:45.009Z,3.22
2022-08-05T12:25:56.670Z,3.20
2022-08-05T12:36:02.704Z,3.58
2022-08-05T12:46:07.455Z,3.65
2022-08-05T12:56:34.536Z,3.60
2022-08-05T13:06:44.851Z,3.60
2022-08-05T13:16:56.959Z,3.60
2022-08-05T13:27:01.552Z,2.83
2022-08-05T13:37:04.652Z,2.75
2022-08-05T13:47:11.770Z,3.33
2022-08-05T13:57:48.673Z,3.53
2022-08-05T14:08:02.968Z,3.33
2022-08-05T14:18:14.875Z,3.42
2022-08-05T14:28:26.718Z,3.30
2022-08-05T14:38:34.174Z,3.50
2022-08-05T14:48:40.587Z,2.97
2022-08-05T14:58:47.747Z,3.35
2022-08-05T15:09:03.006Z,3.28
2022-08-05T15:19:06.800Z,3.30
2022-08-05T15:29:18.920Z,3.35
2022-08-05T15:41:04.618Z,3.65
2022-08-05T15:49:58.727Z,3.30
2022-08-05T16:00:02.663Z,3.60
2022-08-05T16:10:11.547Z,3.42
2022-08-05T16:20:14.764Z,3.40
2022-08-05T16:30:25.801Z,3.67
2022-08-05T16:40:29.960Z,3.20
2022-08-05T16:50:34.427Z,3.28
2022-08-05T17:00:37.696Z,3.30
2022-08-05T17:10:42.448Z,4.47
2022-08-05T17:20:45.579Z,4.72
2022-08-05T17:30:51.984Z,5.57
2022-08-05T17:40:55.498Z,4.88
2022-08-05T17:51:01.509Z,4.40
2022-08-05T18:01:12.146Z,5.43
2022-08-05T18:11:24.516Z,4.40
2022-08-05T18:22:09.271Z,4.90
2022-08-05T18:32:00.461Z,5.20
2022-08-05T18:42:10.896Z,5.45
2022-08-05T18:52:35.713Z,5.20
2022-08-05T19:02:39.766Z,4.05
2022-08-05T19:12:46.181Z,3.70
2022-08-05T19:22:49.512Z,3.10
2022-08-05T19:32:55.289Z,3.65
2022-08-05T19:43:04.770Z,3.72
2022-08-05T19:53:10.803Z,3.58
2022-08-05T20:03:14.054Z,4.32
2022-08-05T20:13:54.715Z,3.97
2022-08-05T20:23:51.335Z,3.15
2022-08-05T20:33:57.836Z,3.90
2022-08-05T20:44:17.764Z,3.80
2022-08-05T20:54:25.277Z,4.35
2022-08-05T21:04:30.088Z,3.50
2022-08-05T21:14:35.515Z,3.55
2022-08-05T21:24:38.796Z,3.90
2022-08-05T21:34:43.842Z,3.78
2022-08-05T21:44:59.256Z,4.03
2022-08-05T21:55:06.367Z,3.63
2022-08-05T22:05:10.940Z,3.97
2022-08-05T22:16:00.686Z,4.57
2022-08-05T22:26:09.753Z,3.58
2022-08-05T22:36:15.997Z,3.90
2022-08-05T22:46:23.643Z,3.97
2022-08-05T22:56:31.442Z,4.47
2022-08-05T23:06:34.671Z,4.10
2022-08-05T23:16:58.307Z,4.25
2022-08-05T23:27:02.937Z,4.78
2022-08-05T23:37:08.079Z,5.22
2022-08-05T23:47:16.200Z,5.18
2022-08-05T23:57:20.734Z,4.85
